sensor_id;sensor_type;location;lat;lon;timestamp;pressure;altitude;pressure_sealevel;temperature;humidity
69570;BME280;56781;42.292;23.146;2023-04-02T00:07:50;94798.38;;;2.13;100.00
69570;BME280;56781;42.292;23.146;2023-04-02T00:10:25;94776.72;;;2.06;100.00
69570;BME280;56781;42.292;23.146;2023-04-02T00:13:12;94796.00;;;2.12;100.00
69570;BME280;56781;42.292;23.146;2023-04-02T00:15:49;94772.50;;;1.90;100.00
69570;BME280;56781;42.292;23.146;2023-04-02T00:18:21;94764.84;;;1.88;100.00
69570;BME280;56781;42.292;23.146;2023-04-02T00:23:40;94761.94;;;1.90;100.00
69570;BME280;56781;42.292;23.146;2023-04-02T00:26:36;94769.84;;;1.90;100.00
69570;BME280;56781;42.292;23.146;2023-04-02T00:29:05;94765.63;;;1.89;100.00
69570;BME280;56781;42.292;23.146;2023-04-02T00:31:33;94749.28;;;1.82;100.00
69570;BME280;56781;42.292;23.146;2023-04-02T00:34:02;94765.38;;;1.90;100.00
69570;BME280;56781;42.292;23.146;2023-04-02T00:36:31;94752.44;;;1.73;100.00
69570;BME280;56781;42.292;23.146;2023-04-02T00:39:09;94749.53;;;1.75;100.00
69570;BME280;56781;42.292;23.146;2023-04-02T00:41:39;94759.50;;;1.37;100.00
69570;BME280;56781;42.292;23.146;2023-04-02T00:44:15;94747.56;;;1.09;100.00
69570;BME280;56781;42.292;23.146;2023-04-02T00:46:49;94772.47;;;0.76;100.00
69570;BME280;56781;42.292;23.146;2023-04-02T00:49:30;94768.00;;;0.76;100.00
69570;BME280;56781;42.292;23.146;2023-04-02T00:52:02;94764.69;;;0.49;100.00
69570;BME280;56781;42.292;23.146;2023-04-02T00:54:36;94746.03;;;0.55;100.00
69570;BME280;56781;42.292;23.146;2023-04-02T00:57:16;94750.63;;;0.80;100.00
69570;BME280;56781;42.292;23.146;2023-04-02T01:02:34;94770.63;;;0.81;100.00
69570;BME280;56781;42.292;23.146;2023-04-02T01:07:56;94785.28;;;1.15;100.00
69570;BME280;56781;42.292;23.146;2023-04-02T01:13:23;94795.13;;;1.60;100.00
69570;BME280;56781;42.292;23.146;2023-04-02T01:16:05;94789.09;;;1.70;100.00
69570;BME280;56781;42.292;23.146;2023-04-02T01:24:04;94794.66;;;1.84;100.00
69570;BME280;56781;42.292;23.146;2023-04-02T01:27:00;94793.97;;;0.57;100.00
69570;BME280;56781;42.292;23.146;2023-04-02T01:29:30;94777.53;;;0.03;100.00
69570;BME280;56781;42.292;23.146;2023-04-02T01:32:05;94789.84;;;0.29;100.00
69570;BME280;56781;42.292;23.146;2023-04-02T01:34:35;94790.81;;;0.55;100.00
69570;BME280;56781;42.292;23.146;2023-04-02T01:37:13;94810.63;;;0.73;100.00
69570;BME280;56781;42.292;23.146;2023-04-02T01:45:14;94790.09;;;0.28;100.00
69570;BME280;56781;42.292;23.146;2023-04-02T01:47:42;94790.97;;;0.38;100.00
69570;BME280;56781;42.292;23.146;2023-04-02T01:52:48;94786.38;;;0.66;100.00
69570;BME280;56781;42.292;23.146;2023-04-02T01:55:20;94789.34;;;0.80;100.00
69570;BME280;56781;42.292;23.146;2023-04-02T01:57:51;94786.50;;;0.92;100.00
69570;BME280;56781;42.292;23.146;2023-04-02T02:00:20;94821.97;;;1.31;100.00
69570;BME280;56781;42.292;23.146;2023-04-02T02:02:49;94816.47;;;1.33;100.00
69570;BME280;56781;42.292;23.146;2023-04-02T02:05:19;94800.59;;;1.23;100.00
69570;BME280;56781;42.292;23.146;2023-04-02T02:07:51;94816.16;;;1.29;100.00
69570;BME280;56781;42.292;23.146;2023-04-02T02:10:28;94793.41;;;1.08;100.00
69570;BME280;56781;42.292;23.146;2023-04-02T02:12:57;94778.25;;;0.73;100.00
69570;BME280;56781;42.292;23.146;2023-04-02T02:15:26;94806.53;;;0.45;100.00
69570;BME280;56781;42.292;23.146;2023-04-02T02:17:57;94796.66;;;0.25;100.00
69570;BME280;56781;42.292;23.146;2023-04-02T02:20:27;94783.84;;;0.39;100.00
69570;BME280;56781;42.292;23.146;2023-04-02T02:22:55;94789.19;;;0.54;100.00
69570;BME280;56781;42.292;23.146;2023-04-02T02:25:26;94797.56;;;0.41;100.00
69570;BME280;56781;42.292;23.146;2023-04-02T02:33:25;94821.00;;;0.85;100.00
69570;BME280;56781;42.292;23.146;2023-04-02T02:36:11;94768.75;;;0.66;100.00
69570;BME280;56781;42.292;23.146;2023-04-02T02:41:40;94774.72;;;0.57;100.00
69570;BME280;56781;42.292;23.146;2023-04-02T02:44:27;94800.66;;;0.75;100.00
69570;BME280;56781;42.292;23.146;2023-04-02T02:47:01;94787.88;;;1.04;100.00
69570;BME280;56781;42.292;23.146;2023-04-02T02:49:31;94787.88;;;1.04;100.00
69570;BME280;56781;42.292;23.146;2023-04-02T02:54:31;94794.41;;;0.92;100.00
69570;BME280;56781;42.292;23.146;2023-04-02T02:57:03;94795.69;;;0.84;100.00
69570;BME280;56781;42.292;23.146;2023-04-02T02:59:33;94783.28;;;0.79;100.00
69570;BME280;56781;42.292;23.146;2023-04-02T03:02:01;94763.72;;;0.65;100.00
69570;BME280;56781;42.292;23.146;2023-04-02T03:04:30;94783.69;;;0.56;100.00
69570;BME280;56781;42.292;23.146;2023-04-02T03:07:01;94775.53;;;0.62;100.00
69570;BME280;56781;42.292;23.146;2023-04-02T03:09:51;94808.72;;;1.06;100.00
69570;BME280;56781;42.292;23.146;2023-04-02T03:12:26;94797.69;;;1.14;100.00
69570;BME280;56781;42.292;23.146;2023-04-02T03:15:34;94787.94;;;1.25;100.00
69570;BME280;56781;42.292;23.146;2023-04-02T03:21:17;94789.75;;;1.19;100.00
69570;BME280;56781;42.292;23.146;2023-04-02T03:23:52;94811.38;;;1.16;100.00
69570;BME280;56781;42.292;23.146;2023-04-02T03:26:29;94792.91;;;1.11;100.00
69570;BME280;56781;42.292;23.146;2023-04-02T03:29:09;94799.81;;;1.27;100.00
69570;BME280;56781;42.292;23.146;2023-04-02T03:32:15;94789.06;;;1.39;100.00
69570;BME280;56781;42.292;23.146;2023-04-02T03:34:54;94800.94;;;1.47;100.00
69570;BME280;56781;42.292;23.146;2023-04-02T03:37:43;94794.88;;;1.41;100.00
69570;BME280;56781;42.292;23.146;2023-04-02T03:40:17;94803.84;;;1.50;100.00
69570;BME280;56781;42.292;23.146;2023-04-02T03:42:54;94794.06;;;1.46;100.00
69570;BME280;56781;42.292;23.146;2023-04-02T03:45:32;94796.19;;;1.54;100.00
69570;BME280;56781;42.292;23.146;2023-04-02T03:50:56;94796.09;;;1.18;100.00
69570;BME280;56781;42.292;23.146;2023-04-02T03:53:25;94791.53;;;0.93;100.00
69570;BME280;56781;42.292;23.146;2023-04-02T03:55:56;94785.94;;;0.79;100.00
69570;BME280;56781;42.292;23.146;2023-04-02T03:58:38;94789.59;;;0.78;100.00
69570;BME280;56781;42.292;23.146;2023-04-02T04:01:19;94772.00;;;0.89;100.00
69570;BME280;56781;42.292;23.146;2023-04-02T04:03:53;94811.94;;;1.23;100.00
69570;BME280;56781;42.292;23.146;2023-04-02T04:06:31;94797.66;;;1.09;100.00
69570;BME280;56781;42.292;23.146;2023-04-02T04:09:15;94795.28;;;1.13;100.00
69570;BME280;56781;42.292;23.146;2023-04-02T04:11:47;94828.88;;;1.48;100.00
69570;BME280;56781;42.292;23.146;2023-04-02T04:14:29;94797.13;;;1.12;100.00
69570;BME280;56781;42.292;23.146;2023-04-02T04:17:24;94800.13;;;1.36;100.00
69570;BME280;56781;42.292;23.146;2023-04-02T04:22:50;94801.47;;;0.81;100.00
69570;BME280;56781;42.292;23.146;2023-04-02T04:25:26;94830.16;;;0.77;100.00
69570;BME280;56781;42.292;23.146;2023-04-02T04:28:15;94800.66;;;0.75;100.00
69570;BME280;56781;42.292;23.146;2023-04-02T04:33:56;94800.22;;;0.94;100.00
69570;BME280;56781;42.292;23.146;2023-04-02T04:36:39;94806.09;;;1.16;100.00
69570;BME280;56781;42.292;23.146;2023-04-02T04:39:17;94814.91;;;1.42;100.00
69570;BME280;56781;42.292;23.146;2023-04-02T04:41:50;94827.63;;;1.61;100.00
69570;BME280;56781;42.292;23.146;2023-04-02T04:44:22;94824.16;;;1.60;100.00
69570;BME280;56781;42.292;23.146;2023-04-02T04:47:19;94827.38;;;1.83;100.00
69570;BME280;56781;42.292;23.146;2023-04-02T04:49:56;94815.25;;;1.76;100.00
69570;BME280;56781;42.292;23.146;2023-04-02T04:52:30;94813.84;;;1.43;100.00
69570;BME280;56781;42.292;23.146;2023-04-02T04:55:00;94817.50;;;1.37;100.00
69570;BME280;56781;42.292;23.146;2023-04-02T04:57:34;94845.50;;;1.48;100.00
69570;BME280;56781;42.292;23.146;2023-04-02T05:00:10;94828.91;;;1.58;100.00
69570;BME280;56781;42.292;23.146;2023-04-02T05:03:38;94820.00;;;1.85;100.00
69570;BME280;56781;42.292;23.146;2023-04-02T05:05:47;94820.81;;;2.06;100.00
69570;BME280;56781;42.292;23.146;2023-04-02T05:08:21;94812.09;;;2.15;100.00
69570;BME280;56781;42.292;23.146;2023-04-02T05:11:00;94842.72;;;2.52;100.00
69570;BME280;56781;42.292;23.146;2023-04-02T05:13:40;94822.38;;;2.63;100.00
69570;BME280;56781;42.292;23.146;2023-04-02T05:16:20;94841.16;;;2.61;100.00
69570;BME280;56781;42.292;23.146;2023-04-02T05:18:55;94831.13;;;2.43;100.00
69570;BME280;56781;42.292;23.146;2023-04-02T05:21:43;94835.88;;;2.31;100.00
69570;BME280;56781;42.292;23.146;2023-04-02T05:26:49;94868.63;;;2.35;100.00
69570;BME280;56781;42.292;23.146;2023-04-02T05:29:25;94844.84;;;2.09;100.00
69570;BME280;56781;42.292;23.146;2023-04-02T05:32:08;94874.69;;;2.40;100.00
69570;BME280;56781;42.292;23.146;2023-04-02T05:34:47;94855.13;;;2.41;100.00
69570;BME280;56781;42.292;23.146;2023-04-02T05:37:20;94872.31;;;2.59;100.00
69570;BME280;56781;42.292;23.146;2023-04-02T05:39:54;94881.81;;;2.86;100.00
69570;BME280;56781;42.292;23.146;2023-04-02T05:42:29;94853.53;;;2.71;100.00
69570;BME280;56781;42.292;23.146;2023-04-02T05:45:34;94889.44;;;2.93;100.00
69570;BME280;56781;42.292;23.146;2023-04-02T05:48:16;94856.56;;;3.40;100.00
69570;BME280;56781;42.292;23.146;2023-04-02T05:50:55;94854.38;;;4.75;100.00
69570;BME280;56781;42.292;23.146;2023-04-02T05:53:34;94865.19;;;6.37;92.97
69570;BME280;56781;42.292;23.146;2023-04-02T05:56:34;94852.31;;;9.27;80.88
69570;BME280;56781;42.292;23.146;2023-04-02T05:59:11;94878.47;;;11.74;69.47
69570;BME280;56781;42.292;23.146;2023-04-02T06:01:54;94854.91;;;11.88;68.89
69570;BME280;56781;42.292;23.146;2023-04-02T06:04:49;94872.03;;;13.22;62.56
69570;BME280;56781;42.292;23.146;2023-04-02T06:07:23;94880.38;;;14.64;60.07
69570;BME280;56781;42.292;23.146;2023-04-02T06:10:06;94848.88;;;16.55;51.50
69570;BME280;56781;42.292;23.146;2023-04-02T06:15:18;94843.31;;;15.17;52.36
69570;BME280;56781;42.292;23.146;2023-04-02T06:20:29;94849.41;;;16.45;49.10
69570;BME280;56781;42.292;23.146;2023-04-02T06:25:41;94834.91;;;13.97;56.36
69570;BME280;56781;42.292;23.146;2023-04-02T06:28:20;94831.25;;;13.65;57.63
69570;BME280;56781;42.292;23.146;2023-04-02T06:30:56;94838.59;;;13.32;59.48
69570;BME280;56781;42.292;23.146;2023-04-02T06:33:29;94847.25;;;13.62;60.81
69570;BME280;56781;42.292;23.146;2023-04-02T06:35:59;94850.50;;;12.55;62.17
69570;BME280;56781;42.292;23.146;2023-04-02T06:38:30;94832.00;;;13.66;59.52
69570;BME280;56781;42.292;23.146;2023-04-02T06:41:02;94841.81;;;15.80;52.71
69570;BME280;56781;42.292;23.146;2023-04-02T06:43:44;94841.31;;;16.99;48.42
69570;BME280;56781;42.292;23.146;2023-04-02T06:46:31;94846.88;;;18.52;46.09
69570;BME280;56781;42.292;23.146;2023-04-02T06:49:22;94846.59;;;16.57;48.92
69570;BME280;56781;42.292;23.146;2023-04-02T06:51:53;94848.09;;;17.32;46.70
69570;BME280;56781;42.292;23.146;2023-04-02T06:54:22;94870.31;;;17.64;49.22
69570;BME280;56781;42.292;23.146;2023-04-02T06:56:53;94847.22;;;17.28;48.23
69570;BME280;56781;42.292;23.146;2023-04-02T06:59:24;94866.91;;;16.31;50.96
69570;BME280;56781;42.292;23.146;2023-04-02T07:02:06;94857.63;;;18.45;44.25
69570;BME280;56781;42.292;23.146;2023-04-02T07:04:44;94851.41;;;17.91;46.65
69570;BME280;56781;42.292;23.146;2023-04-02T07:07:13;94883.09;;;18.40;45.73
69570;BME280;56781;42.292;23.146;2023-04-02T07:09:42;94870.88;;;17.12;46.20
69570;BME280;56781;42.292;23.146;2023-04-02T07:12:13;94861.56;;;18.51;43.65
69570;BME280;56781;42.292;23.146;2023-04-02T07:14:43;94857.47;;;19.65;42.92
69570;BME280;56781;42.292;23.146;2023-04-02T07:17:18;94857.69;;;19.09;41.65
69570;BME280;56781;42.292;23.146;2023-04-02T07:19:47;94870.38;;;17.25;46.15
69570;BME280;56781;42.292;23.146;2023-04-02T07:22:16;94881.38;;;16.58;48.19
69570;BME280;56781;42.292;23.146;2023-04-02T07:24:44;94868.03;;;16.85;49.58
69570;BME280;56781;42.292;23.146;2023-04-02T07:27:13;94880.03;;;17.46;49.60
69570;BME280;56781;42.292;23.146;2023-04-02T07:29:40;94893.44;;;19.18;44.66
69570;BME280;56781;42.292;23.146;2023-04-02T07:32:12;94881.09;;;18.64;44.25
69570;BME280;56781;42.292;23.146;2023-04-02T07:34:40;94897.38;;;17.45;48.88
69570;BME280;56781;42.292;23.146;2023-04-02T07:37:12;94881.53;;;17.43;49.55
69570;BME280;56781;42.292;23.146;2023-04-02T07:39:40;94883.22;;;18.47;44.48
69570;BME280;56781;42.292;23.146;2023-04-02T07:42:08;94898.00;;;17.58;45.62
69570;BME280;56781;42.292;23.146;2023-04-02T07:44:35;94877.84;;;17.98;46.16
69570;BME280;56781;42.292;23.146;2023-04-02T07:47:02;94903.81;;;19.09;46.85
69570;BME280;56781;42.292;23.146;2023-04-02T07:49:29;94871.00;;;18.07;47.19
69570;BME280;56781;42.292;23.146;2023-04-02T07:51:56;94879.13;;;18.34;44.93
69570;BME280;56781;42.292;23.146;2023-04-02T07:54:23;94873.13;;;18.48;47.65
69570;BME280;56781;42.292;23.146;2023-04-02T07:56:52;94888.59;;;19.00;45.44
69570;BME280;56781;42.292;23.146;2023-04-02T07:59:20;94891.16;;;18.63;47.03
69570;BME280;56781;42.292;23.146;2023-04-02T08:01:47;94884.53;;;19.55;44.27
69570;BME280;56781;42.292;23.146;2023-04-02T08:04:17;94890.31;;;19.90;44.86
69570;BME280;56781;42.292;23.146;2023-04-02T08:06:45;94883.28;;;18.24;46.88
69570;BME280;56781;42.292;23.146;2023-04-02T08:09:14;94881.09;;;18.64;46.04
69570;BME280;56781;42.292;23.146;2023-04-02T08:11:42;94898.69;;;18.73;45.95
69570;BME280;56781;42.292;23.146;2023-04-02T08:14:09;94903.47;;;16.80;47.41
69570;BME280;56781;42.292;23.146;2023-04-02T08:16:47;94894.28;;;15.82;51.27
69570;BME280;56781;42.292;23.146;2023-04-02T08:19:15;94872.63;;;15.79;51.25
69570;BME280;56781;42.292;23.146;2023-04-02T08:21:42;94901.94;;;16.63;51.14
69570;BME280;56781;42.292;23.146;2023-04-02T08:24:10;94873.44;;;17.24;49.20
69570;BME280;56781;42.292;23.146;2023-04-02T08:26:37;94880.00;;;18.68;47.30
69570;BME280;56781;42.292;23.146;2023-04-02T08:29:04;94879.88;;;18.57;46.74
69570;BME280;56781;42.292;23.146;2023-04-02T08:31:31;94859.34;;;18.03;45.78
69570;BME280;56781;42.292;23.146;2023-04-02T08:33:58;94867.41;;;17.77;46.21
69570;BME280;56781;42.292;23.146;2023-04-02T08:36:34;94872.03;;;17.99;46.63
69570;BME280;56781;42.292;23.146;2023-04-02T08:39:03;94861.53;;;18.21;46.46
69570;BME280;56781;42.292;23.146;2023-04-02T08:41:37;94863.19;;;18.55;45.23
69570;BME280;56781;42.292;23.146;2023-04-02T08:47:16;94878.59;;;17.52;43.66
69570;BME280;56781;42.292;23.146;2023-04-02T08:49:58;94872.25;;;17.02;45.19
69570;BME280;56781;42.292;23.146;2023-04-02T08:52:30;94866.81;;;17.21;43.50
69570;BME280;56781;42.292;23.146;2023-04-02T08:55:00;94866.19;;;17.51;40.97
69570;BME280;56781;42.292;23.146;2023-04-02T08:57:34;94864.25;;;17.28;43.39
69570;BME280;56781;42.292;23.146;2023-04-02T09:02:42;94855.34;;;17.28;44.72
69570;BME280;56781;42.292;23.146;2023-04-02T09:05:19;94866.53;;;17.07;43.13
69570;BME280;56781;42.292;23.146;2023-04-02T09:07:49;94838.22;;;17.66;43.53
69570;BME280;56781;42.292;23.146;2023-04-02T09:10:18;94855.00;;;17.76;43.32
69570;BME280;56781;42.292;23.146;2023-04-02T09:12:51;94839.72;;;17.41;43.28
69570;BME280;56781;42.292;23.146;2023-04-02T09:15:27;94845.38;;;17.55;42.50
69570;BME280;56781;42.292;23.146;2023-04-02T09:18:04;94839.59;;;17.34;41.80
69570;BME280;56781;42.292;23.146;2023-04-02T09:20:35;94836.78;;;16.68;42.34
69570;BME280;56781;42.292;23.146;2023-04-02T09:23:04;94842.00;;;16.22;43.51
69570;BME280;56781;42.292;23.146;2023-04-02T09:25:31;94862.66;;;16.50;45.54
69570;BME280;56781;42.292;23.146;2023-04-02T09:28:02;94842.38;;;16.95;43.89
69570;BME280;56781;42.292;23.146;2023-04-02T09:30:53;94825.38;;;17.17;40.10
69570;BME280;56781;42.292;23.146;2023-04-02T09:33:43;94844.72;;;17.39;38.48
69570;BME280;56781;42.292;23.146;2023-04-02T09:36:30;94837.88;;;17.68;41.41
69570;BME280;56781;42.292;23.146;2023-04-02T09:41:34;94812.63;;;17.37;41.42
69570;BME280;56781;42.292;23.146;2023-04-02T09:44:24;94815.38;;;17.41;43.89
69570;BME280;56781;42.292;23.146;2023-04-02T09:46:57;94818.16;;;16.08;44.54
69570;BME280;56781;42.292;23.146;2023-04-02T09:49:30;94813.56;;;15.93;48.85
69570;BME280;56781;42.292;23.146;2023-04-02T09:52:28;94806.88;;;15.23;47.26
69570;BME280;56781;42.292;23.146;2023-04-02T09:55:17;94797.09;;;15.03;45.28
69570;BME280;56781;42.292;23.146;2023-04-02T09:57:46;94790.31;;;14.93;47.40
69570;BME280;56781;42.292;23.146;2023-04-02T10:03:04;94801.09;;;14.93;46.09
69570;BME280;56781;42.292;23.146;2023-04-02T10:05:34;94792.59;;;15.55;46.38
69570;BME280;56781;42.292;23.146;2023-04-02T10:08:17;94799.00;;;16.33;41.02
69570;BME280;56781;42.292;23.146;2023-04-02T10:10:50;94795.63;;;16.75;40.18
69570;BME280;56781;42.292;23.146;2023-04-02T10:16:13;94793.53;;;16.68;41.12
69570;BME280;56781;42.292;23.146;2023-04-02T10:18:57;94787.41;;;15.78;38.01
69570;BME280;56781;42.292;23.146;2023-04-02T10:21:35;94798.56;;;16.11;42.33
69570;BME280;56781;42.292;23.146;2023-04-02T10:24:17;94796.25;;;16.49;42.43
69570;BME280;56781;42.292;23.146;2023-04-02T10:27:01;94820.63;;;16.52;38.92
69570;BME280;56781;42.292;23.146;2023-04-02T10:32:56;94799.25;;;15.73;43.85
69570;BME280;56781;42.292;23.146;2023-04-02T10:46:17;94789.28;;;16.67;41.98
69570;BME280;56781;42.292;23.146;2023-04-02T10:51:30;94792.84;;;16.52;41.71
69570;BME280;56781;42.292;23.146;2023-04-02T10:56:43;94777.75;;;16.90;40.15
69570;BME280;56781;42.292;23.146;2023-04-02T10:59:25;94786.56;;;17.52;40.83
69570;BME280;56781;42.292;23.146;2023-04-02T11:01:55;94776.06;;;17.24;39.75
69570;BME280;56781;42.292;23.146;2023-04-02T11:04:42;94794.31;;;17.31;40.02
69570;BME280;56781;42.292;23.146;2023-04-02T11:07:21;94780.56;;;17.62;38.07
69570;BME280;56781;42.292;23.146;2023-04-02T11:10:00;94753.75;;;17.31;36.23
69570;BME280;56781;42.292;23.146;2023-04-02T11:12:42;94773.06;;;16.87;39.59
69570;BME280;56781;42.292;23.146;2023-04-02T11:15:20;94772.78;;;16.72;43.17
69570;BME280;56781;42.292;23.146;2023-04-02T11:17:47;94768.88;;;15.44;41.54
69570;BME280;56781;42.292;23.146;2023-04-02T11:20:57;94761.84;;;16.26;40.45
69570;BME280;56781;42.292;23.146;2023-04-02T11:23:56;94750.13;;;17.46;36.36
69570;BME280;56781;42.292;23.146;2023-04-02T11:26:40;94756.84;;;17.29;37.50
69570;BME280;56781;42.292;23.146;2023-04-02T11:37:43;94724.03;;;16.46;38.67
69570;BME280;56781;42.292;23.146;2023-04-02T11:50:36;94739.66;;;15.66;39.91
69570;BME280;56781;42.292;23.146;2023-04-02T11:53:20;94730.09;;;15.84;38.90
69570;BME280;56781;42.292;23.146;2023-04-02T11:59:23;94741.06;;;16.30;41.08
69570;BME280;56781;42.292;23.146;2023-04-02T12:02:27;94724.56;;;16.55;38.47
69570;BME280;56781;42.292;23.146;2023-04-02T12:05:14;94719.00;;;17.10;41.16
69570;BME280;56781;42.292;23.146;2023-04-02T12:08:00;94699.94;;;17.48;40.03
69570;BME280;56781;42.292;23.146;2023-04-02T12:10:51;94696.41;;;17.75;35.33
69570;BME280;56781;42.292;23.146;2023-04-02T12:16:11;94717.56;;;18.56;34.51
69570;BME280;56781;42.292;23.146;2023-04-02T12:18:44;94700.69;;;18.70;34.74
69570;BME280;56781;42.292;23.146;2023-04-02T12:21:17;94718.28;;;18.49;37.12
69570;BME280;56781;42.292;23.146;2023-04-02T12:23:46;94685.16;;;17.99;36.41
69570;BME280;56781;42.292;23.146;2023-04-02T12:28:52;94694.38;;;16.92;39.88
69570;BME280;56781;42.292;23.146;2023-04-02T12:31:22;94693.72;;;16.36;41.05
69570;BME280;56781;42.292;23.146;2023-04-02T12:33:51;94692.59;;;15.99;42.46
69570;BME280;56781;42.292;23.146;2023-04-02T12:36:21;94684.06;;;15.77;43.77
69570;BME280;56781;42.292;23.146;2023-04-02T12:38:54;94712.94;;;15.77;42.42
69570;BME280;56781;42.292;23.146;2023-04-02T12:41:27;94699.28;;;15.34;44.02
69570;BME280;56781;42.292;23.146;2023-04-02T12:44:01;94688.59;;;15.22;43.60
69570;BME280;56781;42.292;23.146;2023-04-02T12:46:32;94679.28;;;15.19;44.22
69570;BME280;56781;42.292;23.146;2023-04-02T12:51:50;94704.91;;;15.61;41.60
69570;BME280;56781;42.292;23.146;2023-04-02T12:54:18;94683.84;;;15.50;44.02
69570;BME280;56781;42.292;23.146;2023-04-02T12:56:49;94688.03;;;15.48;44.37
69570;BME280;56781;42.292;23.146;2023-04-02T13:02:02;94682.41;;;15.21;44.60
69570;BME280;56781;42.292;23.146;2023-04-02T13:04:30;94715.66;;;15.25;45.33
69570;BME280;56781;42.292;23.146;2023-04-02T13:06:57;94684.78;;;14.91;47.37
69570;BME280;56781;42.292;23.146;2023-04-02T13:09:32;94684.53;;;14.96;46.27
69570;BME280;56781;42.292;23.146;2023-04-02T13:12:01;94690.75;;;15.00;46.84
69570;BME280;56781;42.292;23.146;2023-04-02T13:14:29;94680.59;;;14.78;46.49
69570;BME280;56781;42.292;23.146;2023-04-02T13:16:56;94689.91;;;14.80;47.95
69570;BME280;56781;42.292;23.146;2023-04-02T13:21:54;94690.88;;;14.88;45.80
69570;BME280;56781;42.292;23.146;2023-04-02T13:24:28;94718.59;;;15.04;47.82
69570;BME280;56781;42.292;23.146;2023-04-02T13:26:58;94708.78;;;14.96;46.58
69570;BME280;56781;42.292;23.146;2023-04-02T13:29:33;94697.47;;;15.06;47.17
69570;BME280;56781;42.292;23.146;2023-04-02T13:32:03;94704.88;;;15.10;43.53
69570;BME280;56781;42.292;23.146;2023-04-02T13:34:31;94703.28;;;15.24;45.40
69570;BME280;56781;42.292;23.146;2023-04-02T13:36:59;94697.44;;;15.22;48.95
69570;BME280;56781;42.292;23.146;2023-04-02T13:39:26;94709.44;;;15.25;47.31
69570;BME280;56781;42.292;23.146;2023-04-02T13:41:59;94688.78;;;14.97;46.21
69570;BME280;56781;42.292;23.146;2023-04-02T13:44:32;94688.69;;;14.78;47.57
69570;BME280;56781;42.292;23.146;2023-04-02T13:47:00;94690.41;;;14.86;50.21
69570;BME280;56781;42.292;23.146;2023-04-02T13:49:28;94691.38;;;14.78;47.64
69570;BME280;56781;42.292;23.146;2023-04-02T13:51:58;94682.00;;;14.72;45.69
69570;BME280;56781;42.292;23.146;2023-04-02T13:54:29;94683.72;;;14.80;47.86
69570;BME280;56781;42.292;23.146;2023-04-02T13:57:00;94684.69;;;14.72;47.76
69570;BME280;56781;42.292;23.146;2023-04-02T13:59:28;94690.75;;;14.84;48.03
69570;BME280;56781;42.292;23.146;2023-04-02T14:02:04;94691.38;;;14.78;51.88
69570;BME280;56781;42.292;23.146;2023-04-02T14:04:39;94695.09;;;14.73;48.71
69570;BME280;56781;42.292;23.146;2023-04-02T14:09:59;94696.75;;;14.78;53.16
69570;BME280;56781;42.292;23.146;2023-04-02T14:18:23;94728.00;;;14.38;49.85
69570;BME280;56781;42.292;23.146;2023-04-02T14:27:11;94729.25;;;14.13;51.70
69570;BME280;56781;42.292;23.146;2023-04-02T14:35:36;94696.44;;;13.95;54.87
69570;BME280;56781;42.292;23.146;2023-04-02T14:40:48;94709.78;;;13.91;51.65
69570;BME280;56781;42.292;23.146;2023-04-02T14:43:23;94715.47;;;14.14;49.61
69570;BME280;56781;42.292;23.146;2023-04-02T14:45:57;94712.38;;;14.28;52.12
69570;BME280;56781;42.292;23.146;2023-04-02T14:48:42;94709.63;;;14.40;51.59
69570;BME280;56781;42.292;23.146;2023-04-02T14:51:16;94698.66;;;14.33;52.39
69570;BME280;56781;42.292;23.146;2023-04-02T14:54:10;94702.75;;;14.43;53.69
69570;BME280;56781;42.292;23.146;2023-04-02T14:56:46;94679.47;;;14.07;53.17
69570;BME280;56781;42.292;23.146;2023-04-02T15:02:21;94687.59;;;14.23;51.29
69570;BME280;56781;42.292;23.146;2023-04-02T15:05:00;94681.88;;;14.68;50.58
69570;BME280;56781;42.292;23.146;2023-04-02T15:07:35;94684.06;;;14.78;50.98
69570;BME280;56781;42.292;23.146;2023-04-02T15:10:28;94701.38;;;14.77;50.64
69570;BME280;56781;42.292;23.146;2023-04-02T15:12:57;94696.41;;;14.95;49.15
69570;BME280;56781;42.292;23.146;2023-04-02T15:18:09;94683.66;;;15.59;46.92
69570;BME280;56781;42.292;23.146;2023-04-02T15:20:45;94680.50;;;15.57;45.92
69570;BME280;56781;42.292;23.146;2023-04-02T15:23:37;94701.66;;;15.71;44.10
69570;BME280;56781;42.292;23.146;2023-04-02T15:29:04;94686.81;;;15.45;44.63
69570;BME280;56781;42.292;23.146;2023-04-02T15:32:01;94680.06;;;15.55;43.17
69570;BME280;56781;42.292;23.146;2023-04-02T15:34:54;94678.22;;;15.40;46.58
69570;BME280;56781;42.292;23.146;2023-04-02T15:37:56;94710.38;;;15.64;47.67
69570;BME280;56781;42.292;23.146;2023-04-02T15:46:17;94712.31;;;15.16;49.34
69570;BME280;56781;42.292;23.146;2023-04-02T15:51:24;94698.94;;;14.88;51.88
69570;BME280;56781;42.292;23.146;2023-04-02T16:02:59;94707.53;;;14.78;52.13
69570;BME280;56781;42.292;23.146;2023-04-02T16:10:50;94695.03;;;14.41;50.26
69570;BME280;56781;42.292;23.146;2023-04-02T16:13:35;94701.34;;;14.33;52.34
69570;BME280;56781;42.292;23.146;2023-04-02T16:16:24;94724.06;;;14.20;54.26
69570;BME280;56781;42.292;23.146;2023-04-02T16:19:11;94704.50;;;13.95;55.48
69570;BME280;56781;42.292;23.146;2023-04-02T16:22:07;94724.03;;;13.92;55.00
69570;BME280;56781;42.292;23.146;2023-04-02T16:24:37;94688.00;;;13.68;55.77
69570;BME280;56781;42.292;23.146;2023-04-02T16:27:22;94695.19;;;13.64;56.69
69570;BME280;56781;42.292;23.146;2023-04-02T16:43:59;94698.16;;;11.77;70.05
69570;BME280;56781;42.292;23.146;2023-04-02T16:49:26;94710.13;;;11.29;72.24
69570;BME280;56781;42.292;23.146;2023-04-02T16:55:00;94726.00;;;11.04;73.94
69570;BME280;56781;42.292;23.146;2023-04-02T17:00:41;94717.38;;;10.99;71.02
69570;BME280;56781;42.292;23.146;2023-04-02T17:15:32;94768.97;;;9.48;87.85
69570;BME280;56781;42.292;23.146;2023-04-02T17:18:00;94734.22;;;8.91;90.47